createdAt,value
2018-09-21T00:00:39.805Z,10.30
2018-09-21T00:03:09.721Z,10.23
2018-09-21T00:05:39.026Z,9.60
2018-09-21T00:08:07.356Z,9.40
2018-09-21T00:10:35.686Z,9.63
2018-09-21T00:13:04.007Z,10.37
2018-09-21T00:15:32.382Z,10.57
2018-09-21T00:18:00.691Z,10.20
2018-09-21T00:20:29.082Z,10.57
2018-09-21T00:22:58.468Z,10.40
2018-09-21T00:25:26.790Z,10.43
2018-09-21T00:27:55.122Z,10.47
2018-09-21T00:30:23.516Z,10.50
2018-09-21T00:32:52.501Z,9.87
2018-09-21T00:35:20.817Z,9.83
2018-09-21T00:37:49.186Z,10.20
2018-09-21T00:40:18.426Z,9.77
2018-09-21T00:42:46.765Z,10.87
2018-09-21T00:45:15.101Z,10.40
2018-09-21T00:47:43.411Z,11.07
2018-09-21T00:50:11.741Z,10.07
2018-09-21T00:52:40.073Z,11.23
2018-09-21T00:55:08.400Z,10.20
2018-09-21T00:57:36.698Z,10.47
2018-09-21T01:00:05.517Z,10.87
2018-09-21T01:02:34.054Z,10.17
2018-09-21T01:05:02.365Z,10.27
2018-09-21T01:07:30.665Z,10.47
2018-09-21T01:09:58.984Z,11.27
2018-09-21T01:12:27.316Z,11.00
2018-09-21T01:14:55.637Z,11.27
2018-09-21T01:17:23.958Z,11.07
2018-09-21T01:19:52.278Z,11.40
2018-09-21T01:22:20.597Z,11.07
2018-09-21T01:24:48.911Z,12.83
2018-09-21T01:27:17.312Z,13.50
2018-09-21T01:29:46.112Z,11.37
2018-09-21T01:32:15.457Z,11.03
2018-09-21T01:34:43.761Z,11.03
2018-09-21T01:37:12.078Z,10.97
2018-09-21T01:39:40.402Z,10.83
2018-09-21T01:42:08.720Z,10.63
2018-09-21T01:44:37.019Z,11.40
2018-09-21T01:47:05.338Z,11.67
2018-09-21T01:49:33.641Z,10.70
2018-09-21T01:52:02.041Z,10.33
2018-09-21T01:54:30.357Z,10.50
2018-09-21T01:56:58.679Z,11.00
2018-09-21T01:59:26.976Z,11.00
2018-09-21T02:01:55.460Z,11.17
2018-09-21T02:04:29.280Z,10.70
2018-09-21T02:06:57.620Z,10.70
2018-09-21T02:09:25.982Z,11.13
2018-09-21T02:11:54.290Z,10.30
2018-09-21T02:14:22.629Z,10.47
2018-09-21T02:16:51.372Z,10.80
2018-09-21T02:19:19.865Z,10.27
2018-09-21T02:21:48.187Z,10.67
2018-09-21T02:24:16.489Z,10.90
2018-09-21T02:26:44.839Z,10.60
2018-09-21T02:29:13.197Z,10.57
2018-09-21T02:31:41.621Z,10.60
2018-09-21T02:34:09.928Z,11.07
2018-09-21T02:36:38.254Z,11.43
2018-09-21T02:39:07.861Z,11.40
2018-09-21T02:41:36.308Z,11.07
2018-09-21T02:44:05.034Z,11.07
2018-09-21T02:46:33.358Z,11.43
2018-09-21T02:49:01.894Z,11.10
2018-09-21T02:51:30.289Z,11.53
2018-09-21T02:53:58.624Z,11.43
2018-09-21T02:56:26.963Z,11.40
2018-09-21T02:58:55.268Z,11.47
2018-09-21T03:01:23.576Z,10.93
2018-09-21T03:03:51.910Z,11.10
2018-09-21T03:06:20.537Z,11.40
2018-09-21T03:08:48.859Z,11.30
2018-09-21T03:11:17.166Z,11.77
2018-09-21T03:13:45.480Z,11.83
2018-09-21T03:16:13.805Z,12.00
2018-09-21T03:18:42.139Z,11.90
2018-09-21T03:21:10.513Z,11.57
2018-09-21T03:23:38.833Z,11.47
2018-09-21T03:26:07.212Z,11.40
2018-09-21T03:28:39.124Z,11.60
2018-09-21T03:31:07.586Z,11.00
2018-09-21T03:33:35.958Z,11.37
2018-09-21T03:36:04.317Z,11.80
2018-09-21T03:38:32.634Z,12.00
2018-09-21T03:41:01.031Z,11.30
2018-09-21T03:43:29.339Z,13.23
2018-09-21T03:45:57.673Z,12.47
2018-09-21T03:48:25.990Z,14.03
2018-09-21T03:50:54.396Z,12.60
2018-09-21T03:53:22.734Z,12.30
2018-09-21T03:55:52.109Z,12.43
2018-09-21T03:58:20.481Z,11.97
2018-09-21T04:00:48.862Z,12.73
2018-09-21T04:03:17.171Z,11.97
2018-09-21T04:05:45.481Z,11.50
2018-09-21T04:08:13.820Z,11.83
2018-09-21T04:10:42.140Z,12.67
2018-09-21T04:13:10.474Z,12.53
2018-09-21T04:15:38.798Z,12.90
2018-09-21T04:18:07.124Z,12.13
2018-09-21T04:20:35.455Z,11.77
2018-09-21T04:23:04.020Z,12.00
2018-09-21T04:25:32.854Z,12.17
2018-09-21T04:28:01.182Z,12.13
2018-09-21T04:30:29.826Z,11.37
2018-09-21T04:32:58.685Z,11.53
2018-09-21T04:35:27.422Z,11.27
2018-09-21T04:37:55.742Z,10.93
2018-09-21T04:40:24.106Z,11.73
2018-09-21T04:42:52.438Z,12.10
2018-09-21T04:45:20.785Z,12.40
2018-09-21T04:47:49.145Z,12.10
2018-09-21T04:50:17.466Z,12.43
2018-09-21T04:52:45.791Z,12.07
2018-09-21T04:55:14.133Z,12.53
2018-09-21T04:57:42.474Z,12.80
2018-09-21T05:00:10.833Z,12.60
2018-09-21T05:02:39.147Z,11.90
2018-09-21T05:05:07.492Z,11.97
2018-09-21T05:07:35.804Z,11.57
2018-09-21T05:10:04.149Z,11.60
2018-09-21T05:12:32.478Z,12.40
2018-09-21T05:15:00.810Z,12.03
2018-09-21T05:17:29.124Z,11.60
2018-09-21T05:19:57.592Z,11.20
2018-09-21T05:22:25.818Z,11.40
2018-09-21T05:24:54.138Z,10.87
2018-09-21T05:27:22.462Z,12.03
2018-09-21T05:29:50.772Z,12.07
2018-09-21T05:32:19.141Z,12.33
2018-09-21T05:34:47.613Z,12.17
2018-09-21T05:37:15.892Z,12.13
2018-09-21T05:39:44.202Z,12.30
2018-09-21T05:42:12.555Z,11.50
2018-09-21T05:44:42.386Z,12.90
2018-09-21T05:47:10.721Z,11.77
2018-09-21T05:49:39.010Z,11.50
2018-09-21T05:52:07.351Z,11.20
2018-09-21T05:54:35.677Z,10.90
2018-09-21T05:57:04.010Z,11.47
2018-09-21T05:59:32.309Z,11.43
2018-09-21T06:02:01.330Z,11.03
2018-09-21T06:04:29.623Z,10.47
2018-09-21T06:06:58.210Z,11.27
2018-09-21T06:09:26.547Z,11.13
2018-09-21T06:11:54.862Z,8.47
2018-09-21T06:14:23.162Z,6.53
2018-09-21T06:16:51.488Z,7.87
2018-09-21T06:19:19.867Z,7.50
2018-09-21T06:21:51.857Z,8.80
2018-09-21T06:24:20.169Z,8.60
2018-09-21T06:26:48.489Z,8.50
2018-09-21T06:29:16.794Z,8.00
2018-09-21T06:31:45.186Z,8.40
2018-09-21T06:34:13.492Z,7.10
2018-09-21T06:36:41.812Z,7.47
2018-09-21T06:39:11.995Z,7.90
2018-09-21T06:41:40.509Z,8.40
2018-09-21T06:44:09.290Z,8.07
2018-09-21T06:46:37.616Z,6.90
2018-09-21T06:49:06.160Z,6.93
2018-09-21T06:51:34.556Z,6.40
2018-09-21T06:54:02.865Z,6.37
2018-09-21T06:56:31.212Z,6.80
2018-09-21T06:58:59.530Z,6.13
2018-09-21T07:01:27.945Z,6.40
2018-09-21T07:03:56.174Z,6.33
2018-09-21T07:06:24.710Z,6.30
2018-09-21T07:08:53.103Z,6.87
2018-09-21T07:11:24.253Z,6.83
2018-09-21T07:13:52.567Z,7.63
2018-09-21T07:16:20.969Z,6.47
2018-09-21T07:18:49.316Z,6.60
2018-09-21T07:21:17.649Z,6.33
2018-09-21T07:23:45.940Z,6.23
2018-09-21T07:26:14.301Z,6.57
2018-09-21T07:28:42.678Z,6.13
2018-09-21T07:31:13.258Z,6.07
2018-09-21T07:33:41.586Z,6.00
2018-09-21T07:36:10.965Z,7.33
2018-09-21T07:38:39.299Z,5.87
2018-09-21T07:41:07.650Z,5.33
2018-09-21T07:43:36.986Z,5.97
2018-09-21T07:46:05.300Z,5.73
2018-09-21T07:48:33.646Z,5.70
2018-09-21T07:51:01.952Z,6.10
2018-09-21T07:53:30.274Z,5.33
2018-09-21T07:55:58.684Z,6.37
2018-09-21T07:58:27.017Z,5.67
2018-09-21T08:00:55.308Z,5.73
2018-09-21T08:03:23.618Z,5.97
2018-09-21T08:05:52.669Z,6.40
2018-09-21T08:08:20.977Z,6.67
2018-09-21T08:10:49.286Z,6.13
2018-09-21T08:13:17.604Z,6.40
2018-09-21T08:15:45.920Z,6.43
2018-09-21T08:18:14.208Z,6.33
2018-09-21T08:20:42.553Z,6.03
2018-09-21T08:23:10.835Z,6.40
2018-09-21T08:25:39.190Z,6.47
2018-09-21T08:28:07.775Z,6.10
2018-09-21T08:30:36.184Z,6.30
2018-09-21T08:33:04.528Z,6.07
2018-09-21T08:35:32.841Z,6.20
2018-09-21T08:38:01.220Z,6.23
2018-09-21T08:40:29.576Z,6.33
2018-09-21T08:42:57.892Z,6.70
2018-09-21T08:45:26.247Z,5.97
2018-09-21T08:47:54.528Z,6.63
2018-09-21T08:50:22.905Z,6.47
2018-09-21T08:52:51.233Z,6.80
2018-09-21T08:55:19.577Z,6.47
2018-09-21T08:57:47.878Z,5.90
2018-09-21T09:00:16.205Z,6.53
2018-09-21T09:02:44.645Z,6.87
2018-09-21T09:05:12.941Z,6.30
2018-09-21T09:07:41.241Z,6.60
2018-09-21T09:10:09.621Z,6.23
2018-09-21T09:12:38.913Z,6.17
2018-09-21T09:15:07.241Z,6.40
2018-09-21T09:17:35.545Z,6.27
2018-09-21T09:20:03.917Z,6.27
2018-09-21T09:22:32.217Z,6.13
2018-09-21T09:25:00.566Z,6.07
2018-09-21T09:27:28.871Z,5.63
2018-09-21T09:29:57.197Z,5.63
2018-09-21T09:32:25.536Z,5.30
2018-09-21T09:34:54.045Z,5.17
2018-09-21T09:37:22.346Z,5.23
2018-09-21T09:39:50.669Z,4.30
2018-09-21T09:42:19.022Z,4.43
2018-09-21T09:44:47.457Z,4.10
2018-09-21T09:47:15.753Z,4.77
2018-09-21T09:49:44.064Z,4.27
2018-09-21T09:52:12.353Z,4.23
2018-09-21T09:54:40.692Z,4.03
2018-09-21T09:57:08.985Z,4.10
2018-09-21T09:59:37.329Z,3.90
2018-09-21T10:02:05.665Z,3.60
2018-09-21T10:04:33.987Z,3.97
2018-09-21T10:07:02.297Z,4.47
2018-09-21T10:09:30.625Z,4.30
2018-09-21T10:11:58.946Z,3.90
2018-09-21T10:14:27.241Z,3.70
2018-09-21T10:16:55.631Z,4.13
2018-09-21T10:19:23.926Z,3.90
2018-09-21T10:21:52.246Z,3.57
2018-09-21T10:24:20.541Z,3.70
2018-09-21T10:26:48.904Z,3.70
2018-09-21T10:29:17.272Z,4.10
2018-09-21T10:31:45.580Z,3.60
2018-09-21T10:34:13.890Z,3.80
2018-09-21T10:36:42.245Z,3.80
2018-09-21T10:39:10.601Z,3.63
2018-09-21T10:41:38.894Z,3.30
2018-09-21T10:44:07.207Z,3.63
2018-09-21T10:46:35.536Z,4.13
2018-09-21T10:49:03.928Z,4.07
2018-09-21T10:51:32.261Z,3.70
2018-09-21T10:54:00.569Z,3.70
2018-09-21T10:56:28.934Z,3.60
2018-09-21T10:58:57.899Z,3.50
2018-09-21T11:01:26.221Z,3.57
2018-09-21T11:04:01.601Z,3.47
2018-09-21T11:06:29.966Z,3.40
2018-09-21T11:08:58.354Z,3.53
2018-09-21T11:11:27.733Z,3.00
2018-09-21T11:13:57.201Z,3.00
2018-09-21T11:16:25.729Z,2.43
2018-09-21T11:18:54.190Z,2.37
2018-09-21T11:21:22.505Z,2.40
2018-09-21T11:23:50.821Z,2.40
2018-09-21T11:26:19.169Z,1.97
2018-09-21T11:28:48.570Z,2.33
2018-09-21T11:31:16.910Z,2.07
2018-09-21T11:33:45.278Z,2.00
2018-09-21T11:36:13.602Z,2.00
2018-09-21T11:38:41.968Z,1.93
2018-09-21T11:41:10.342Z,1.57
2018-09-21T11:43:38.819Z,2.00
2018-09-21T11:46:07.554Z,1.80
2018-09-21T11:48:36.107Z,2.10
2018-09-21T11:51:04.549Z,2.10
2018-09-21T11:53:33.607Z,2.10
2018-09-21T11:56:01.910Z,2.27
2018-09-21T11:58:30.226Z,2.00
2018-09-21T12:00:58.542Z,1.83
2018-09-21T12:03:26.867Z,2.00
2018-09-21T12:05:55.162Z,2.30
2018-09-21T12:08:23.521Z,2.60
2018-09-21T12:10:51.833Z,2.37
2018-09-21T12:13:20.189Z,2.47
2018-09-21T12:15:48.518Z,2.50
2018-09-21T12:18:16.846Z,2.20
2018-09-21T12:20:45.188Z,2.17
2018-09-21T12:23:13.509Z,2.20
2018-09-21T12:25:41.846Z,2.67
2018-09-21T12:28:10.188Z,2.23
2018-09-21T12:30:38.503Z,2.27
2018-09-21T12:33:07.126Z,2.10
2018-09-21T12:35:35.441Z,2.10
2018-09-21T12:38:03.782Z,2.00
2018-09-21T12:40:32.085Z,2.40
2018-09-21T12:43:00.461Z,2.60
2018-09-21T12:45:28.774Z,2.53
2018-09-21T12:47:57.142Z,2.03
2018-09-21T12:50:25.673Z,2.40
2018-09-21T12:52:53.985Z,2.20
2018-09-21T12:55:22.284Z,2.60
2018-09-21T12:57:50.689Z,2.40
2018-09-21T13:00:19.033Z,2.83
2018-09-21T13:02:47.394Z,1.60
2018-09-21T13:05:15.686Z,0.90
2018-09-21T13:07:44.069Z,0.70
2018-09-21T13:10:12.394Z,0.60
2018-09-21T13:12:40.720Z,0.30
2018-09-21T13:15:09.052Z,0.33
2018-09-21T13:17:37.363Z,0.40
2018-09-21T13:20:05.750Z,0.20
2018-09-21T13:22:34.057Z,0.20
2018-09-21T13:25:02.397Z,0.30
2018-09-21T13:27:30.709Z,0.40
2018-09-21T13:29:59.046Z,0.40
2018-09-21T13:32:27.427Z,0.30
2018-09-21T13:34:55.729Z,0.30
2018-09-21T13:37:24.881Z,0.43
2018-09-21T13:39:53.249Z,0.50
2018-09-21T13:42:21.563Z,0.47
2018-09-21T13:44:49.880Z,0.40
2018-09-21T13:47:18.196Z,0.80
2018-09-21T13:49:46.538Z,0.70
2018-09-21T13:52:14.838Z,0.60
2018-09-21T13:54:43.158Z,0.80
2018-09-21T13:57:11.476Z,0.57
2018-09-21T13:59:39.798Z,0.70
2018-09-21T14:02:08.238Z,1.03
2018-09-21T14:04:36.569Z,0.80
2018-09-21T14:07:04.887Z,0.80
2018-09-21T14:09:33.218Z,1.00
2018-09-21T14:12:01.519Z,0.80
2018-09-21T14:14:29.867Z,1.03
2018-09-21T14:16:58.177Z,1.07
2018-09-21T14:19:26.505Z,0.80
2018-09-21T14:21:54.857Z,0.90
2018-09-21T14:24:23.184Z,1.20
2018-09-21T14:26:51.486Z,1.00
2018-09-21T14:29:19.901Z,1.00
2018-09-21T14:31:48.198Z,0.90
2018-09-21T14:34:16.588Z,1.00
2018-09-21T14:36:44.898Z,1.10
2018-09-21T14:39:13.238Z,1.30
2018-09-21T14:41:41.576Z,1.20
2018-09-21T14:44:09.894Z,1.20
2018-09-21T14:46:38.401Z,0.90
2018-09-21T14:49:06.727Z,1.20
2018-09-21T14:51:35.070Z,1.50
2018-09-21T14:54:03.408Z,1.10
2018-09-21T14:56:31.737Z,1.13
2018-09-21T14:59:00.078Z,1.30
2018-09-21T15:01:28.443Z,1.10
2018-09-21T15:03:56.741Z,1.60
2018-09-21T15:06:25.093Z,1.60
2018-09-21T15:08:53.425Z,1.30
2018-09-21T15:11:21.773Z,1.17
2018-09-21T15:13:50.133Z,1.60
2018-09-21T15:16:18.481Z,1.40
2018-09-21T15:18:46.819Z,1.50
2018-09-21T15:21:15.140Z,1.37
2018-09-21T15:23:43.458Z,1.70
2018-09-21T15:26:11.800Z,1.47
2018-09-21T15:28:40.104Z,1.27
2018-09-21T15:31:08.535Z,1.70
2018-09-21T15:33:36.942Z,1.63
2018-09-21T15:36:05.261Z,1.83
2018-09-21T15:38:33.584Z,1.87
2018-09-21T15:41:01.905Z,1.63
2018-09-21T15:43:30.291Z,2.30
2018-09-21T15:45:58.562Z,2.10
2018-09-21T15:48:26.869Z,2.27
2018-09-21T15:50:55.193Z,2.07
2018-09-21T15:53:23.572Z,2.70
2018-09-21T15:55:51.938Z,1.90
2018-09-21T15:58:20.252Z,2.60
2018-09-21T16:00:48.582Z,2.73
2018-09-21T16:03:16.888Z,2.37
2018-09-21T16:05:45.249Z,2.50
2018-09-21T16:08:13.549Z,2.57
2018-09-21T16:10:41.900Z,2.60
2018-09-21T16:13:10.281Z,2.90
2018-09-21T16:15:38.602Z,2.70
2018-09-21T16:18:06.935Z,2.77
2018-09-21T16:20:35.262Z,3.13
2018-09-21T16:23:03.586Z,2.87
2018-09-21T16:25:31.909Z,3.03
2018-09-21T16:28:00.237Z,3.43
2018-09-21T16:30:28.574Z,3.27
2018-09-21T16:32:56.916Z,3.37
2018-09-21T16:35:25.214Z,3.90
2018-09-21T16:37:53.655Z,4.10
2018-09-21T16:40:21.990Z,4.27
2018-09-21T16:42:50.361Z,4.67
2018-09-21T16:45:18.791Z,4.40
2018-09-21T16:47:47.113Z,4.50
2018-09-21T16:50:15.539Z,4.90
2018-09-21T16:52:44.073Z,4.70
2018-09-21T16:55:12.660Z,4.63
2018-09-21T16:57:40.976Z,4.77
2018-09-21T17:00:09.504Z,5.07
2018-09-21T17:02:39.177Z,4.50
2018-09-21T17:05:07.506Z,4.40
2018-09-21T17:07:35.816Z,4.13
2018-09-21T17:10:04.211Z,4.43
2018-09-21T17:12:32.532Z,4.60
2018-09-21T17:15:00.850Z,4.10
2018-09-21T17:17:29.243Z,4.50
2018-09-21T17:19:57.545Z,4.50
2018-09-21T17:22:25.864Z,4.50
2018-09-21T17:24:54.173Z,4.50
2018-09-21T17:27:22.547Z,4.70
2018-09-21T17:29:50.929Z,4.07
2018-09-21T17:32:19.256Z,3.90
2018-09-21T17:34:47.574Z,4.30
2018-09-21T17:37:15.961Z,2.67
2018-09-21T17:39:44.473Z,3.03
2018-09-21T17:42:12.792Z,2.03
2018-09-21T17:44:41.114Z,2.27
2018-09-21T17:47:09.548Z,2.00
2018-09-21T17:49:38.786Z,1.87
2018-09-21T17:52:07.473Z,1.97
2018-09-21T17:54:36.858Z,1.63
2018-09-21T17:57:05.269Z,1.80
2018-09-21T17:59:33.709Z,1.53
2018-09-21T18:02:02.194Z,1.60
2018-09-21T18:04:30.562Z,1.53
2018-09-21T18:06:59.383Z,1.70
2018-09-21T18:09:27.696Z,1.57
2018-09-21T18:11:56.092Z,1.40
2018-09-21T18:14:24.674Z,1.40
2018-09-21T18:16:53.103Z,1.60
2018-09-21T18:19:21.567Z,1.50
2018-09-21T18:21:49.903Z,1.57
2018-09-21T18:24:18.258Z,1.60
2018-09-21T18:26:46.744Z,1.60
2018-09-21T18:29:15.066Z,1.93
2018-09-21T18:31:43.470Z,1.77
2018-09-21T18:34:11.924Z,1.80
2018-09-21T18:36:40.228Z,1.90
2018-09-21T18:39:08.942Z,1.60
2018-09-21T18:41:37.308Z,1.80
2018-09-21T18:44:06.569Z,1.40
2018-09-21T18:46:34.940Z,1.73
2018-09-21T18:49:04.357Z,1.13
2018-09-21T18:51:32.734Z,1.50
2018-09-21T18:54:01.730Z,1.53
2018-09-21T18:56:30.113Z,1.23
2018-09-21T18:58:58.570Z,1.20
2018-09-21T19:01:26.881Z,1.00
2018-09-21T19:03:55.248Z,1.10
2018-09-21T19:06:23.596Z,1.00
2018-09-21T19:08:51.977Z,0.70
2018-09-21T19:11:20.292Z,0.90
2018-09-21T19:13:48.762Z,0.80
2018-09-21T19:16:17.258Z,0.90
2018-09-21T19:18:45.645Z,0.77
2018-09-21T19:21:14.083Z,1.00
2018-09-21T19:23:42.456Z,0.80
2018-09-21T19:26:10.825Z,1.10
2018-09-21T19:28:42.934Z,0.90
2018-09-21T19:31:11.293Z,0.70
2018-09-21T19:33:39.809Z,0.80
2018-09-21T19:36:08.123Z,1.90
2018-09-21T19:38:36.804Z,1.00
2018-09-21T19:41:05.085Z,0.70
2018-09-21T19:43:33.416Z,0.80
2018-09-21T19:46:01.768Z,0.70
2018-09-21T19:48:30.108Z,0.80
2018-09-21T19:50:58.525Z,0.83
2018-09-21T19:53:26.840Z,1.00
2018-09-21T19:55:55.140Z,0.87
2018-09-21T19:58:23.559Z,0.70
2018-09-21T20:00:51.933Z,0.70
2018-09-21T20:03:20.282Z,0.87
2018-09-21T20:05:48.692Z,0.70
2018-09-21T20:08:17.005Z,1.00
2018-09-21T20:10:45.352Z,0.90
2018-09-21T20:13:13.768Z,0.80
2018-09-21T20:15:42.109Z,0.67
2018-09-21T20:18:10.500Z,0.90
2018-09-21T20:20:38.839Z,0.80
2018-09-21T20:23:07.153Z,1.00
2018-09-21T20:25:35.476Z,0.83
2018-09-21T20:28:03.862Z,0.80
2018-09-21T20:30:37.659Z,0.80
2018-09-21T20:33:11.500Z,0.90
2018-09-21T20:35:39.985Z,0.63
2018-09-21T20:38:08.262Z,1.10
2018-09-21T20:40:36.634Z,0.90
2018-09-21T20:43:05.001Z,0.83
2018-09-21T20:45:33.324Z,1.00
2018-09-21T20:48:01.646Z,0.80
2018-09-21T20:50:30.056Z,1.10
2018-09-21T20:52:58.404Z,1.30
2018-09-21T20:55:26.804Z,0.87
2018-09-21T20:57:55.141Z,1.17
2018-09-21T21:00:23.559Z,1.00
2018-09-21T21:02:51.863Z,0.90
2018-09-21T21:05:20.293Z,0.90
2018-09-21T21:07:48.582Z,0.90
2018-09-21T21:10:16.918Z,0.93
2018-09-21T21:12:45.221Z,1.00
2018-09-21T21:15:13.545Z,0.80
2018-09-21T21:17:41.850Z,0.60
2018-09-21T21:20:10.448Z,0.80
2018-09-21T21:22:38.761Z,1.10
2018-09-21T21:25:07.088Z,1.10
2018-09-21T21:27:35.429Z,1.00
2018-09-21T21:30:03.830Z,0.70
2018-09-21T21:32:32.153Z,1.00
2018-09-21T21:35:00.780Z,0.90
2018-09-21T21:37:29.086Z,0.90
2018-09-21T21:39:57.412Z,0.70
2018-09-21T21:42:25.750Z,0.70
2018-09-21T21:44:54.061Z,0.90
2018-09-21T21:47:22.377Z,0.60
2018-09-21T21:49:50.672Z,0.80
2018-09-21T21:52:18.993Z,0.63
2018-09-21T21:54:47.294Z,0.80
2018-09-21T21:57:15.638Z,0.80
2018-09-21T21:59:44.774Z,0.80
2018-09-21T22:02:13.590Z,0.80
2018-09-21T22:04:42.324Z,1.27
2018-09-21T22:07:11.553Z,0.60
2018-09-21T22:09:40.049Z,0.80
2018-09-21T22:13:13.401Z,0.87
2018-09-21T22:15:41.722Z,0.80
2018-09-21T22:18:10.024Z,0.80
2018-09-21T22:20:38.358Z,0.70
2018-09-21T22:23:06.670Z,0.70
2018-09-21T22:25:35.022Z,0.80
2018-09-21T22:28:03.325Z,1.20
2018-09-21T22:30:31.640Z,0.70
2018-09-21T22:32:59.946Z,0.80
2018-09-21T22:35:28.259Z,0.80
2018-09-21T22:37:56.590Z,0.90
2018-09-21T22:40:24.913Z,0.93
2018-09-21T22:42:53.220Z,0.80
2018-09-21T22:45:21.604Z,0.80
2018-09-21T22:47:49.858Z,0.70
2018-09-21T22:50:18.176Z,0.80
2018-09-21T22:52:46.541Z,0.80
2018-09-21T22:55:14.852Z,0.90
2018-09-21T22:57:43.176Z,1.10
2018-09-21T23:00:11.516Z,0.80
2018-09-21T23:02:39.841Z,0.80
2018-09-21T23:05:08.276Z,1.20
2018-09-21T23:07:36.630Z,0.73
2018-09-21T23:10:04.965Z,1.13
2018-09-21T23:12:33.291Z,0.93
2018-09-21T23:15:01.598Z,0.90
2018-09-21T23:17:29.926Z,0.90
2018-09-21T23:19:58.232Z,1.03
2018-09-21T23:22:26.545Z,1.10
2018-09-21T23:24:54.849Z,1.10
2018-09-21T23:27:23.165Z,1.00
2018-09-21T23:29:51.479Z,0.87
2018-09-21T23:32:19.829Z,0.80
2018-09-21T23:34:50.209Z,0.90
2018-09-21T23:37:18.541Z,1.00
2018-09-21T23:39:46.844Z,0.80
2018-09-21T23:42:15.317Z,0.87
2018-09-21T23:44:45.429Z,0.90
2018-09-21T23:47:13.759Z,0.90
2018-09-21T23:49:42.117Z,0.97
2018-09-21T23:52:10.432Z,0.90
2018-09-21T23:54:38.731Z,0.70
2018-09-21T23:57:07.077Z,0.70
2018-09-21T23:59:35.377Z,0.80
